Time;durP1;ratioP1;P1;durP2;ratioP2;P2;SDS_P1;SDS_P2;PMS_P1;PMS_P2;Temp;Humidity;BMP_temperature;BMP_pressure;BME280_temperature;BME280_humidity;BME280_pressure;Samples;Min_cycle;Max_cycle;Signal;HPM_P1;HPM_P2
2021/12/17 00:00:18;;;;;;;6.82;3.85;;;23.00;43.60;;;;;;6171936;28;80490;-71
2021/12/17 00:03:21;;;;;;;7.28;3.58;;;23.00;43.60;;;;;;6162502;28;82137;-70
2021/12/17 00:09:22;;;;;;;5.78;3.33;;;23.10;43.40;;;;;;6176516;28;80451;-70
2021/12/17 00:12:23;;;;;;;6.90;3.50;;;23.10;43.40;;;;;;6168602;28;80548;-70
2021/12/17 00:15:24;;;;;;;5.88;3.65;;;23.00;43.40;;;;;;6175461;28;80626;-70
2021/12/17 00:18:30;;;;;;;6.00;3.38;;;23.00;43.30;;;;;;6168014;27;80401;-70
2021/12/17 00:51:53;;;;;;;5.50;3.22;;;23.00;43.40;;;;;;6159345;28;81690;-70
2021/12/17 00:54:32;;;;;;;5.97;3.85;;;23.00;43.40;;;;;;6147158;28;80268;-70
2021/12/17 00:57:41;;;;;;;6.20;3.22;;;23.00;43.40;;;;;;6163478;28;82147;-70
2021/12/17 01:00:42;;;;;;;8.95;4.07;;;23.00;43.20;;;;;;6175531;27;87701;-71
2021/12/17 01:03:43;;;;;;;6.00;3.28;;;23.00;43.30;;;;;;6179009;27;81710;-71
2021/12/17 01:06:43;;;;;;;5.82;3.65;;;23.00;43.20;;;;;;6197284;27;82460;-72
2021/12/17 01:09:45;;;;;;;6.55;3.38;;;23.00;43.30;;;;;;6199297;27;82014;-71
2021/12/17 01:12:46;;;;;;;8.55;4.03;;;22.90;43.10;;;;;;6199917;27;83350;-70
2021/12/17 01:16:05;;;;;;;6.60;3.22;;;23.00;43.40;;;;;;6170489;28;80727;-71
2021/12/17 01:36:38;;;;;;;5.95;3.22;;;23.00;42.90;;;;;;6154231;28;81880;-69
2021/12/17 01:40:59;;;;;;;10.70;3.78;;;22.90;42.70;;;;;;6164377;28;80518;-69
2021/12/17 01:43:10;;;;;;;5.70;3.03;;;23.00;42.60;;;;;;6166388;27;87922;-69
2021/12/17 01:46:10;;;;;;;12.30;3.90;;;23.00;42.70;;;;;;6178547;27;80651;-69
2021/12/17 01:59:23;;;;;;;6.38;3.65;;;23.00;42.60;;;;;;6172313;28;82233;-68
2021/12/17 02:02:24;;;;;;;8.20;3.10;;;22.90;42.50;;;;;;6135327;28;83725;-68
2021/12/17 02:05:24;;;;;;;7.18;2.55;;;22.90;42.40;;;;;;6154465;28;82850;-68
2021/12/17 02:08:25;;;;;;;5.45;3.08;;;22.90;42.30;;;;;;6177972;27;80941;-68
2021/12/17 02:29:18;;;;;;;7.00;3.08;;;22.90;42.20;;;;;;6158848;28;82565;-69
2021/12/17 02:32:01;;;;;;;5.03;2.90;;;22.90;42.20;;;;;;6163806;28;83260;-68
2021/12/17 02:38:03;;;;;;;6.85;3.13;;;22.90;42.20;;;;;;6170490;28;80803;-68
2021/12/17 02:48:07;;;;;;;5.70;2.75;;;22.90;42.10;;;;;;6171093;27;80421;-68
2021/12/17 02:51:07;;;;;;;6.97;3.40;;;22.90;42.10;;;;;;6163538;28;83113;-67
2021/12/17 02:54:08;;;;;;;6.40;3.25;;;22.90;42.10;;;;;;6158063;28;83355;-68
2021/12/17 02:57:08;;;;;;;7.55;3.42;;;22.90;42.00;;;;;;6169525;28;81639;-68
2021/12/17 03:00:09;;;;;;;6.28;3.08;;;22.90;42.00;;;;;;6167954;28;83626;-68
2021/12/17 03:03:09;;;;;;;6.72;3.05;;;22.90;41.90;;;;;;6171757;28;80164;-68
2021/12/17 03:06:10;;;;;;;6.45;3.08;;;22.90;41.90;;;;;;6194950;28;81812;-68
2021/12/17 03:09:11;;;;;;;5.93;3.00;;;22.90;41.90;;;;;;6166200;28;80388;-68
2021/12/17 03:12:23;;;;;;;6.30;2.72;;;22.90;41.90;;;;;;6172937;28;80680;-68
2021/12/17 03:19:01;;;;;;;7.45;3.03;;;22.90;42.10;;;;;;6174214;28;84793;-69
2021/12/17 03:25:21;;;;;;;6.65;2.83;;;22.90;41.50;;;;;;6157802;28;80660;-68
2021/12/17 03:28:22;;;;;;;6.15;2.28;;;22.90;41.20;;;;;;6165755;28;81394;-69
2021/12/17 03:31:24;;;;;;;3.33;2.40;;;22.90;41.10;;;;;;6158218;28;82434;-68
2021/12/17 03:34:25;;;;;;;6.63;3.17;;;22.90;41.00;;;;;;6161273;28;83184;-69
2021/12/17 03:37:28;;;;;;;8.73;3.30;;;23.00;41.00;;;;;;6159607;28;80111;-69
2021/12/17 03:40:31;;;;;;;5.28;2.53;;;23.00;40.90;;;;;;6156214;28;82434;-68
2021/12/17 03:43:33;;;;;;;5.88;2.40;;;23.00;40.80;;;;;;6172022;28;83477;-69
2021/12/17 03:46:35;;;;;;;5.05;2.55;;;23.10;40.70;;;;;;6173860;27;81444;-69
2021/12/17 03:49:37;;;;;;;7.40;3.00;;;23.10;40.60;;;;;;6166000;28;82161;-69
2021/12/17 03:52:38;;;;;;;4.45;2.83;;;23.10;40.50;;;;;;6157274;28;83188;-68
2021/12/17 03:55:39;;;;;;;6.75;2.88;;;23.20;40.50;;;;;;6193568;28;82958;-68
2021/12/17 03:58:40;;;;;;;5.35;2.75;;;23.20;40.40;;;;;;6159254;28;81447;-68
2021/12/17 04:01:41;;;;;;;4.60;2.53;;;23.20;40.40;;;;;;6201345;27;83375;-68
2021/12/17 04:04:41;;;;;;;6.68;2.92;;;23.20;40.30;;;;;;6174985;28;83238;-68
2021/12/17 04:08:01;;;;;;;6.25;2.97;;;23.30;40.30;;;;;;6175681;27;80836;-68
2021/12/17 04:11:20;;;;;;;5.28;2.60;;;23.30;40.20;;;;;;6144445;28;79976;-68
2021/12/17 04:14:44;;;;;;;6.90;3.25;;;23.30;40.20;;;;;;6184058;28;81890;-68
2021/12/17 04:17:52;;;;;;;6.72;2.65;;;23.30;40.20;;;;;;6160137;28;80362;-68
2021/12/17 04:20:53;;;;;;;5.00;2.50;;;23.40;40.20;;;;;;6164632;28;82088;-69
2021/12/17 04:23:54;;;;;;;4.60;2.70;;;23.40;40.20;;;;;;6199882;28;82842;-69
2021/12/17 04:26:55;;;;;;;5.50;2.70;;;23.40;40.10;;;;;;6164782;28;80936;-68
2021/12/17 04:29:58;;;;;;;9.32;3.50;;;23.40;40.10;;;;;;6157885;28;83463;-68
2021/12/17 04:32:58;;;;;;;5.88;2.65;;;23.40;40.00;;;;;;6157660;28;81839;-67
2021/12/17 04:36:00;;;;;;;5.95;2.42;;;23.40;40.00;;;;;;6157842;28;82774;-72
2021/12/17 04:39:01;;;;;;;7.10;3.35;;;23.40;39.90;;;;;;6160508;28;83013;-71
2021/12/17 04:42:12;;;;;;;5.15;2.65;;;23.40;40.00;;;;;;6161998;28;82381;-71
2021/12/17 04:45:13;;;;;;;6.57;2.60;;;23.40;40.00;;;;;;6169918;28;80809;-74
2021/12/17 04:58:14;;;;;;;5.88;3.05;;;23.40;40.20;;;;;;6158870;28;83646;-67
2021/12/17 05:01:16;;;;;;;6.57;2.80;;;23.50;40.50;;;;;;6175682;27;81987;-66
2021/12/17 05:04:20;;;;;;;7.93;2.97;;;23.50;40.60;;;;;;6174639;27;84191;-69
2021/12/17 05:07:23;;;;;;;5.15;2.80;;;23.50;40.60;;;;;;6166464;28;83712;-65
2021/12/17 05:18:16;;;;;;;2.90;1.83;;;23.30;42.80;;;;;;6150839;28;81792;-66
2021/12/17 05:23:26;;;;;;;3.17;1.88;;;23.30;44.00;;;;;;6159590;28;82280;-69
2021/12/17 05:26:27;;;;;;;5.47;1.85;;;23.30;44.60;;;;;;6156973;28;81885;-67
2021/12/17 05:29:31;;;;;;;4.65;1.48;;;23.30;45.10;;;;;;6191141;28;83314;-70
2021/12/17 05:32:31;;;;;;;2.88;1.63;;;23.30;45.40;;;;;;6159122;28;81516;-68
2021/12/17 05:35:35;;;;;;;7.22;1.50;;;23.30;46.20;;;;;;6158640;28;81543;-66
2021/12/17 05:38:39;;;;;;;2.03;1.30;;;23.30;46.90;;;;;;6159028;28;82759;-67
2021/12/17 05:41:40;;;;;;;5.57;1.63;;;23.30;47.60;;;;;;6159920;28;82546;-66
2021/12/17 05:45:08;;;;;;;2.35;1.73;;;23.30;47.50;;;;;;6160736;28;80230;-67
2021/12/17 05:48:08;;;;;;;2.78;1.73;;;23.30;48.00;;;;;;6160716;28;80670;-65
2021/12/17 05:51:09;;;;;;;2.78;1.60;;;23.30;48.60;;;;;;6159398;28;83398;-66
2021/12/17 05:54:09;;;;;;;5.45;1.42;;;23.40;48.90;;;;;;6158349;28;82856;-65
2021/12/17 05:57:10;;;;;;;2.33;1.70;;;23.40;48.70;;;;;;6159904;28;83183;-65
2021/12/17 06:00:13;;;;;;;2.20;1.58;;;23.30;49.00;;;;;;6157788;28;82830;-65
2021/12/17 06:03:19;;;;;;;3.17;1.40;;;23.30;49.30;;;;;;6142819;28;80319;-65
2021/12/17 06:06:32;;;;;;;2.90;1.52;;;23.30;49.60;;;;;;6159654;28;82569;-67
2021/12/17 06:09:35;;;;;;;1.70;1.30;;;23.30;49.30;;;;;;6159071;28;82809;-66
2021/12/17 06:12:40;;;;;;;3.63;1.83;;;23.40;48.80;;;;;;6159397;28;83324;-66
2021/12/17 06:15:42;;;;;;;6.15;1.85;;;23.30;48.30;;;;;;6190675;28;87469;-66
2021/12/17 06:18:43;;;;;;;5.25;2.00;;;23.30;47.90;;;;;;6159136;28;83561;-64
2021/12/17 06:21:43;;;;;;;8.00;2.05;;;23.40;48.10;;;;;;6158488;28;82604;-65
2021/12/17 06:24:45;;;;;;;7.43;2.30;;;23.40;48.10;;;;;;6158405;28;81868;-65
2021/12/17 06:27:47;;;;;;;6.45;2.25;;;23.40;48.30;;;;;;6159959;28;82942;-65
2021/12/17 06:30:48;;;;;;;5.68;2.10;;;23.40;47.90;;;;;;6158572;28;83243;-67
2021/12/17 06:33:56;;;;;;;9.85;2.60;;;23.40;47.60;;;;;;6187786;28;82631;-66
2021/12/17 06:36:57;;;;;;;7.07;2.38;;;23.40;47.50;;;;;;6159291;28;83100;-66
2021/12/17 06:39:58;;;;;;;3.58;2.00;;;23.40;47.80;;;;;;6189727;28;83207;-66
2021/12/17 06:43:00;;;;;;;11.32;3.13;;;23.40;47.00;;;;;;6158325;28;83678;-66
2021/12/17 06:46:18;;;;;;;6.55;2.92;;;23.40;46.60;;;;;;6158288;28;82629;-67
2021/12/17 07:10:44;;;;;;;8.32;3.72;;;23.00;43.80;;;;;;6153255;28;82065;-63
2021/12/17 07:21:01;;;;;;;8.77;3.60;;;22.50;38.70;;;;;;6149602;28;82829;-66
2021/12/17 07:33:41;;;;;;;8.80;3.72;;;22.10;36.00;;;;;;6157747;28;80368;-64
2021/12/17 07:40:03;;;;;;;8.27;3.92;;;22.00;35.70;;;;;;6159742;28;81875;-67
2021/12/17 07:43:13;;;;;;;12.30;4.07;;;21.90;35.10;;;;;;6156665;28;81480;-66
2021/12/17 07:46:20;;;;;;;10.27;3.80;;;21.70;34.90;;;;;;6156523;28;82261;-67
2021/12/17 07:49:21;;;;;;;10.10;3.85;;;21.70;35.60;;;;;;6140573;28;82340;-65
2021/12/17 07:52:22;;;;;;;13.02;5.05;;;21.70;35.10;;;;;;6156745;28;82952;-64
2021/12/17 07:55:23;;;;;;;12.80;4.07;;;21.60;35.40;;;;;;6157348;28;80380;-67
2021/12/17 07:58:23;;;;;;;10.63;3.50;;;21.50;34.90;;;;;;6154875;28;80402;-66
2021/12/17 08:01:24;;;;;;;12.30;3.70;;;21.50;35.10;;;;;;6157132;28;83705;-66
2021/12/17 08:04:26;;;;;;;11.10;4.25;;;21.50;35.10;;;;;;6154525;28;82857;-66
2021/12/17 08:07:33;;;;;;;13.48;4.60;;;21.50;34.70;;;;;;6187853;28;83685;-66
2021/12/17 08:10:34;;;;;;;10.60;4.55;;;21.60;35.40;;;;;;6157631;28;83897;-66
2021/12/17 08:13:36;;;;;;;13.25;4.85;;;21.60;35.30;;;;;;6158602;28;83036;-65
2021/12/17 08:16:55;;;;;;;8.82;4.30;;;21.60;35.70;;;;;;6157074;28;81784;-66
2021/12/17 08:29:28;;;;;;;9.65;3.83;;;21.60;35.40;;;;;;6154812;28;83128;-65
2021/12/17 08:32:31;;;;;;;8.70;3.88;;;21.60;35.70;;;;;;6157128;28;82458;-66
2021/12/17 08:35:37;;;;;;;11.70;4.20;;;21.60;35.50;;;;;;6160845;28;83113;-66
2021/12/17 08:38:42;;;;;;;16.35;4.43;;;21.60;35.50;;;;;;6160479;28;83117;-66
2021/12/17 08:42:06;;;;;;;9.60;3.55;;;21.60;35.70;;;;;;6156611;28;81381;-65
2021/12/17 08:45:08;;;;;;;9.35;4.00;;;21.50;35.50;;;;;;6159215;28;83203;-65
2021/12/17 08:48:21;;;;;;;10.30;4.22;;;21.50;35.50;;;;;;6160601;28;80525;-64
2021/12/17 08:51:41;;;;;;;13.07;4.53;;;21.50;35.60;;;;;;6143787;28;81618;-65
2021/12/17 08:54:42;;;;;;;12.82;3.88;;;21.50;35.80;;;;;;6154073;28;87589;-66
2021/12/17 08:57:42;;;;;;;9.88;3.72;;;21.50;36.10;;;;;;6160247;28;83114;-66
2021/12/17 09:00:44;;;;;;;11.15;4.03;;;21.50;35.30;;;;;;6161293;28;82804;-65
2021/12/17 09:03:50;;;;;;;12.20;3.77;;;21.50;37.10;;;;;;6159600;28;83877;-65
2021/12/17 09:07:20;;;;;;;6.40;3.30;;;21.60;36.50;;;;;;6162561;28;81557;-64
2021/12/17 09:10:23;;;;;;;11.93;4.00;;;21.70;35.90;;;;;;6183886;28;80149;-65
2021/12/17 09:13:25;;;;;;;7.57;3.17;;;21.90;35.70;;;;;;6163079;28;82773;-64
2021/12/17 09:16:28;;;;;;;9.88;3.70;;;21.90;35.60;;;;;;6169431;28;81046;-65
2021/12/17 09:19:29;;;;;;;11.35;4.00;;;22.00;35.20;;;;;;6161769;28;82995;-65
2021/12/17 09:22:34;;;;;;;11.23;3.70;;;22.10;35.10;;;;;;6169448;28;83839;-64
2021/12/17 09:25:38;;;;;;;10.68;4.50;;;22.20;34.80;;;;;;6161824;28;82901;-64
2021/12/17 09:28:43;;;;;;;12.27;4.40;;;22.30;34.70;;;;;;6164058;28;82706;-64
2021/12/17 09:31:44;;;;;;;10.45;3.83;;;22.30;34.50;;;;;;6161366;28;81905;-64
2021/12/17 09:34:44;;;;;;;11.07;4.60;;;22.40;34.50;;;;;;6162984;28;80935;-65
2021/12/17 09:37:45;;;;;;;10.60;4.07;;;22.40;34.30;;;;;;6160194;28;80792;-64
2021/12/17 09:40:45;;;;;;;13.60;4.20;;;22.40;34.80;;;;;;6167350;28;81315;-63
2021/12/17 09:43:46;;;;;;;15.35;4.57;;;22.50;34.20;;;;;;6198050;28;80806;-63
2021/12/17 09:46:46;;;;;;;10.52;4.40;;;22.50;34.10;;;;;;6168887;28;80314;-63
2021/12/17 09:49:47;;;;;;;10.27;3.90;;;22.60;34.10;;;;;;6160952;28;81387;-63
2021/12/17 09:52:47;;;;;;;12.85;4.07;;;22.60;33.90;;;;;;6170157;28;80599;-63
2021/12/17 09:55:50;;;;;;;7.20;3.47;;;22.60;33.90;;;;;;6160560;28;81698;-64
2021/12/17 09:58:50;;;;;;;8.45;3.45;;;22.60;33.80;;;;;;6167682;28;81444;-65
2021/12/17 10:01:51;;;;;;;13.05;3.97;;;22.60;33.70;;;;;;6174991;28;81721;-66
2021/12/17 10:04:51;;;;;;;9.90;3.92;;;22.70;33.60;;;;;;6165325;28;80863;-65
2021/12/17 10:07:52;;;;;;;8.27;3.92;;;22.70;33.70;;;;;;6172785;28;80416;-66
2021/12/17 10:10:52;;;;;;;10.13;4.20;;;22.70;33.80;;;;;;6165554;28;81430;-64
2021/12/17 10:13:53;;;;;;;11.93;3.75;;;22.70;33.90;;;;;;6160150;28;80599;-66
2021/12/17 10:16:53;;;;;;;10.93;3.85;;;22.70;33.90;;;;;;6165629;28;80343;-66
2021/12/17 10:19:54;;;;;;;9.68;4.00;;;22.80;34.20;;;;;;6160618;28;81736;-66
2021/12/17 10:22:54;;;;;;;14.02;4.25;;;22.80;34.40;;;;;;6170020;28;80425;-67
2021/12/17 10:25:55;;;;;;;11.07;4.20;;;22.80;34.50;;;;;;6164558;28;80812;-67
2021/12/17 10:28:55;;;;;;;9.48;3.60;;;22.80;34.60;;;;;;6165515;28;80408;-66
2021/12/17 10:32:00;;;;;;;12.10;4.82;;;22.80;34.70;;;;;;6170143;28;81751;-65
2021/12/17 10:35:00;;;;;;;6.97;3.10;;;22.90;34.90;;;;;;6176186;28;80624;-64
2021/12/17 10:38:03;;;;;;;10.20;4.30;;;22.90;35.00;;;;;;6160989;28;80894;-65
2021/12/17 10:41:07;;;;;;;7.65;3.35;;;22.90;35.00;;;;;;6162137;28;81364;-65
2021/12/17 10:44:08;;;;;;;8.38;4.13;;;22.90;35.10;;;;;;6167056;28;81483;-64
2021/12/17 10:47:17;;;;;;;9.35;3.47;;;22.90;35.20;;;;;;6169278;28;82211;-64
2021/12/17 10:50:18;;;;;;;6.78;3.10;;;22.90;35.20;;;;;;6171465;28;81795;-63
2021/12/17 10:53:18;;;;;;;6.28;3.20;;;22.90;35.30;;;;;;6172360;28;80804;-63
2021/12/17 10:56:19;;;;;;;7.15;3.03;;;22.90;35.30;;;;;;6169062;28;82117;-63
2021/12/17 10:59:19;;;;;;;12.48;4.28;;;22.90;35.40;;;;;;6159928;28;81837;-65
2021/12/17 11:02:20;;;;;;;9.98;3.53;;;22.90;35.50;;;;;;6173895;27;80729;-65
2021/12/17 11:05:21;;;;;;;8.00;3.67;;;23.00;35.60;;;;;;6160692;28;83684;-65
2021/12/17 11:08:24;;;;;;;6.60;2.97;;;23.00;35.60;;;;;;6159594;28;81635;-65
2021/12/17 11:11:24;;;;;;;11.85;4.22;;;23.00;35.60;;;;;;6169602;27;80331;-65
2021/12/17 11:14:25;;;;;;;4.78;2.60;;;23.00;35.70;;;;;;6174574;27;80904;-64
2021/12/17 11:17:25;;;;;;;7.88;3.50;;;23.00;35.70;;;;;;6164960;28;80489;-64
2021/12/17 11:20:26;;;;;;;8.80;3.35;;;23.00;35.80;;;;;;6166315;27;80610;-64
2021/12/17 11:23:28;;;;;;;6.63;3.33;;;23.00;35.80;;;;;;6162879;28;86077;-64
2021/12/17 11:26:28;;;;;;;8.63;3.70;;;23.00;35.80;;;;;;6159908;28;80548;-65
2021/12/17 11:29:29;;;;;;;8.20;3.30;;;23.00;35.80;;;;;;6175632;27;80264;-64
2021/12/17 11:32:29;;;;;;;6.22;3.08;;;23.10;35.90;;;;;;6159813;28;80708;-64
2021/12/17 11:35:30;;;;;;;8.50;3.53;;;23.00;35.80;;;;;;6175244;27;81741;-65
2021/12/17 11:38:30;;;;;;;4.97;3.10;;;23.10;36.00;;;;;;6166530;28;80620;-66
2021/12/17 11:41:31;;;;;;;8.13;3.50;;;23.00;35.90;;;;;;6160679;28;80262;-66
2021/12/17 11:44:40;;;;;;;6.45;3.22;;;23.10;35.90;;;;;;6164410;28;83806;-66
2021/12/17 11:47:41;;;;;;;8.23;3.22;;;23.10;36.00;;;;;;6169528;27;82978;-66
2021/12/17 11:50:41;;;;;;;7.78;3.58;;;23.10;36.00;;;;;;6178798;28;80689;-67
2021/12/17 11:53:42;;;;;;;8.98;3.88;;;23.10;36.10;;;;;;6167271;27;80828;-65
2021/12/17 11:56:43;;;;;;;8.10;3.45;;;23.10;36.70;;;;;;6213811;27;80400;-65
2021/12/17 11:59:43;;;;;;;9.55;3.40;;;23.20;36.20;;;;;;6174074;28;80730;-65
2021/12/17 12:02:44;;;;;;;7.38;3.53;;;23.10;36.10;;;;;;6174792;28;80536;-66
2021/12/17 12:05:44;;;;;;;10.00;4.05;;;23.10;36.30;;;;;;6178418;28;80180;-65
2021/12/17 12:08:48;;;;;;;11.30;5.13;;;23.10;36.40;;;;;;6178305;27;81321;-65
2021/12/17 12:11:48;;;;;;;8.27;3.90;;;23.10;36.50;;;;;;6162821;28;81771;-65
2021/12/17 12:14:49;;;;;;;11.32;4.70;;;23.20;36.60;;;;;;6174877;27;80907;-66
2021/12/17 12:17:49;;;;;;;10.07;4.75;;;23.10;36.50;;;;;;6167630;27;82879;-66
2021/12/17 12:20:50;;;;;;;17.10;4.55;;;23.20;36.60;;;;;;6165802;28;80601;-66
2021/12/17 12:23:51;;;;;;;12.30;4.65;;;23.10;36.60;;;;;;6173645;27;80583;-67
2021/12/17 12:26:52;;;;;;;8.88;4.03;;;23.20;36.70;;;;;;6170833;27;80411;-68
2021/12/17 12:29:53;;;;;;;8.32;4.05;;;23.20;36.80;;;;;;6171333;28;83202;-67
2021/12/17 12:32:53;;;;;;;15.15;5.13;;;23.10;36.60;;;;;;6165454;28;80230;-66
2021/12/17 12:35:54;;;;;;;8.00;3.33;;;23.20;36.70;;;;;;6164249;28;83308;-67
2021/12/17 12:38:54;;;;;;;7.65;3.88;;;23.20;36.50;;;;;;6161998;28;81537;-67
2021/12/17 12:41:55;;;;;;;9.85;3.97;;;23.20;36.60;;;;;;6163768;28;81553;-67
2021/12/17 12:44:56;;;;;;;11.27;4.10;;;23.20;36.60;;;;;;6161887;28;80780;-67
2021/12/17 12:47:58;;;;;;;8.60;3.70;;;23.20;36.50;;;;;;6165681;28;80820;-66
2021/12/17 12:50:58;;;;;;;10.15;4.13;;;23.20;36.50;;;;;;6163424;28;80651;-67
2021/12/17 12:53:59;;;;;;;7.30;3.83;;;23.20;36.40;;;;;;6162640;28;80416;-67
2021/12/17 12:56:59;;;;;;;8.82;4.45;;;23.20;36.50;;;;;;6178640;27;80796;-67
2021/12/17 13:00:00;;;;;;;9.77;4.93;;;23.20;36.50;;;;;;6180349;27;80451;-66
2021/12/17 13:03:00;;;;;;;9.38;4.05;;;23.20;36.40;;;;;;6174995;27;80639;-67
2021/12/17 13:06:01;;;;;;;9.32;3.88;;;23.20;36.40;;;;;;6178101;28;80343;-67
2021/12/17 13:09:02;;;;;;;6.80;3.60;;;23.20;36.40;;;;;;6171008;28;83651;-67
2021/12/17 13:12:02;;;;;;;8.52;4.20;;;23.20;36.40;;;;;;6166708;28;80779;-67
2021/12/17 13:15:03;;;;;;;10.90;4.05;;;23.20;36.50;;;;;;6162064;28;80379;-69
2021/12/17 13:24:31;;;;;;;7.80;3.50;;;23.30;37.10;;;;;;6166336;28;80662;-70
2021/12/17 13:27:31;;;;;;;11.93;3.92;;;23.30;37.40;;;;;;6158728;28;81637;-69
2021/12/17 13:30:32;;;;;;;10.95;4.35;;;23.20;37.60;;;;;;6164174;28;81438;-68
2021/12/17 13:33:32;;;;;;;11.05;4.25;;;23.20;37.60;;;;;;6160316;28;80584;-67
2021/12/17 13:36:33;;;;;;;5.47;3.58;;;23.30;37.70;;;;;;6161997;28;81496;-69
2021/12/17 13:39:33;;;;;;;9.68;3.95;;;23.30;37.90;;;;;;6159042;28;80576;-68
2021/12/17 13:42:34;;;;;;;10.52;4.50;;;23.30;37.70;;;;;;6167337;28;80998;-68
2021/12/17 13:45:35;;;;;;;10.45;4.55;;;23.30;37.80;;;;;;6164696;28;81832;-68
2021/12/17 13:48:36;;;;;;;12.15;4.22;;;23.30;37.70;;;;;;6162799;28;80643;-67
2021/12/17 13:51:36;;;;;;;8.10;4.72;;;23.30;37.80;;;;;;6159872;28;82774;-69
2021/12/17 13:54:37;;;;;;;11.93;4.43;;;23.30;37.80;;;;;;6163557;28;80425;-68
2021/12/17 13:57:37;;;;;;;10.73;3.92;;;23.30;37.70;;;;;;6158518;28;80883;-70
2021/12/17 14:00:39;;;;;;;9.60;3.80;;;23.40;37.80;;;;;;6155539;28;80540;-68
2021/12/17 14:03:42;;;;;;;7.47;3.40;;;23.40;37.70;;;;;;6160468;28;80803;-69
2021/12/17 14:06:51;;;;;;;7.32;3.92;;;23.40;37.70;;;;;;6158718;28;85097;-69
2021/12/17 14:09:52;;;;;;;10.57;4.68;;;23.40;37.90;;;;;;6158907;28;81383;-68
2021/12/17 14:12:52;;;;;;;7.43;3.83;;;23.40;37.90;;;;;;6160218;28;80461;-68
2021/12/17 14:15:53;;;;;;;9.23;3.75;;;23.40;37.90;;;;;;6158717;28;81029;-66
2021/12/17 14:18:53;;;;;;;8.55;4.13;;;23.40;37.90;;;;;;6161094;28;80738;-64
2021/12/17 14:21:54;;;;;;;7.82;3.70;;;23.40;37.90;;;;;;6165678;28;80467;-66
2021/12/17 14:24:54;;;;;;;8.73;4.05;;;23.40;37.70;;;;;;6154780;27;81633;-65
2021/12/17 14:27:55;;;;;;;6.97;3.60;;;23.40;37.60;;;;;;6162078;28;80890;-65
2021/12/17 14:30:56;;;;;;;6.55;3.70;;;23.40;37.50;;;;;;6169714;28;80573;-66
2021/12/17 14:33:57;;;;;;;8.85;4.22;;;23.40;37.60;;;;;;6171934;28;80283;-65
2021/12/17 14:36:57;;;;;;;9.00;4.18;;;23.40;37.40;;;;;;6166122;28;81623;-64
2021/12/17 14:39:59;;;;;;;11.10;4.50;;;23.40;37.40;;;;;;6169271;28;80565;-64
2021/12/17 14:43:00;;;;;;;8.02;4.07;;;23.40;37.40;;;;;;6165448;27;80203;-64
2021/12/17 14:46:10;;;;;;;10.85;3.80;;;23.30;37.30;;;;;;6172583;28;80399;-64
2021/12/17 15:05:19;;;;;;;4.22;2.53;;;23.30;39.70;;;;;;6162764;28;80782;-66
2021/12/17 15:08:19;;;;;;;8.27;2.88;;;23.10;41.90;;;;;;6160300;28;80508;-65
2021/12/17 15:11:31;;;;;;;10.52;3.17;;;23.00;42.00;;;;;;6158229;28;80810;-64
2021/12/17 15:14:32;;;;;;;8.35;2.42;;;23.00;43.40;;;;;;6160500;28;81251;-63
2021/12/17 15:17:32;;;;;;;4.35;2.67;;;23.00;43.90;;;;;;6164619;27;80552;-65
2021/12/17 15:20:33;;;;;;;4.47;2.35;;;23.00;44.60;;;;;;6158192;28;81654;-64
2021/12/17 15:23:35;;;;;;;5.50;2.63;;;23.00;44.80;;;;;;6163438;27;80490;-67
2021/12/17 15:26:35;;;;;;;5.93;2.13;;;23.00;45.30;;;;;;6175483;27;80692;-63
2021/12/17 15:29:36;;;;;;;6.22;2.30;;;23.00;45.60;;;;;;6160335;28;80541;-68
2021/12/17 15:32:36;;;;;;;3.25;2.13;;;22.90;45.60;;;;;;6161793;28;87153;-65
2021/12/17 15:35:37;;;;;;;3.58;2.20;;;22.90;46.80;;;;;;6160546;28;80410;-68
2021/12/17 15:38:38;;;;;;;2.33;1.60;;;23.00;46.90;;;;;;6173304;28;80832;-64
2021/12/17 15:41:41;;;;;;;5.57;2.10;;;23.00;47.20;;;;;;6165263;28;81845;-67
2021/12/17 15:44:42;;;;;;;3.45;1.98;;;23.00;47.40;;;;;;6169110;28;84731;-64
2021/12/17 15:47:42;;;;;;;2.95;1.73;;;23.00;47.70;;;;;;6163006;28;80609;-64
2021/12/17 15:50:43;;;;;;;4.18;2.08;;;22.90;48.20;;;;;;6167741;28;80937;-64
2021/12/17 15:53:43;;;;;;;3.95;2.17;;;22.90;48.40;;;;;;6166512;28;80921;-66
2021/12/17 15:56:46;;;;;;;5.68;2.42;;;22.90;48.70;;;;;;6170870;28;80682;-65
2021/12/17 15:59:49;;;;;;;1.85;1.42;;;22.90;49.10;;;;;;6156580;28;87650;-68
2021/12/17 16:02:49;;;;;;;3.65;2.08;;;22.90;48.50;;;;;;6170376;27;80989;-67
2021/12/17 16:05:50;;;;;;;5.53;2.70;;;23.00;48.20;;;;;;6177259;28;81317;-65
2021/12/17 16:08:55;;;;;;;4.50;2.30;;;23.00;47.90;;;;;;6157018;28;83041;-67
2021/12/17 16:12:04;;;;;;;7.80;2.67;;;23.00;47.40;;;;;;6175136;28;81499;-65
2021/12/17 16:21:28;;;;;;;4.90;2.42;;;23.10;46.40;;;;;;6167591;27;80771;-65
2021/12/17 16:24:28;;;;;;;4.82;2.55;;;23.10;46.80;;;;;;6170273;28;80368;-65
2021/12/17 16:27:29;;;;;;;6.68;3.10;;;23.10;46.40;;;;;;6165455;28;80789;-65
2021/12/17 16:30:30;;;;;;;5.55;2.90;;;23.10;46.50;;;;;;6193900;28;80515;-66
2021/12/17 16:33:31;;;;;;;6.88;3.38;;;23.00;46.40;;;;;;6172511;28;80646;-65
2021/12/17 16:36:31;;;;;;;6.18;2.83;;;23.00;46.10;;;;;;6169662;27;80613;-65
2021/12/17 16:39:32;;;;;;;7.18;3.50;;;23.00;46.20;;;;;;6163997;27;81326;-66
2021/12/17 16:42:33;;;;;;;9.07;3.33;;;23.00;45.90;;;;;;6162633;28;80486;-67
2021/12/17 16:45:41;;;;;;;5.70;3.28;;;23.00;45.50;;;;;;6166490;28;82995;-67
2021/12/17 16:48:41;;;;;;;8.07;3.70;;;23.00;45.50;;;;;;6160677;28;81745;-66
2021/12/17 16:51:42;;;;;;;6.60;3.10;;;22.90;44.90;;;;;;6158294;28;85060;-67
2021/12/17 16:54:42;;;;;;;9.20;3.75;;;22.90;45.40;;;;;;6174992;27;80875;-67
2021/12/17 16:57:43;;;;;;;5.93;3.30;;;22.90;45.40;;;;;;6180182;27;80891;-67
2021/12/17 17:00:43;;;;;;;9.48;3.30;;;22.90;45.20;;;;;;6176208;27;80594;-65
2021/12/17 17:03:44;;;;;;;7.07;3.42;;;22.90;45.40;;;;;;6170363;28;80297;-67
2021/12/17 17:06:44;;;;;;;7.60;3.40;;;22.90;45.60;;;;;;6162853;28;80567;-67
2021/12/17 17:09:45;;;;;;;8.40;3.90;;;22.90;45.70;;;;;;6175058;27;80760;-64
2021/12/17 17:12:49;;;;;;;5.57;3.72;;;22.80;45.20;;;;;;6173358;27;80857;-65
2021/12/17 17:15:49;;;;;;;5.68;3.50;;;22.90;45.30;;;;;;6176564;28;80943;-66
2021/12/17 17:18:50;;;;;;;7.65;4.10;;;22.80;45.50;;;;;;6173946;28;81295;-65
2021/12/17 17:21:50;;;;;;;7.97;3.65;;;22.90;46.10;;;;;;6163399;28;80771;-66
2021/12/17 17:24:51;;;;;;;9.35;4.15;;;22.90;45.50;;;;;;6166205;28;80550;-66
2021/12/17 17:27:51;;;;;;;7.28;4.43;;;22.90;45.60;;;;;;6170629;27;80504;-65
2021/12/17 17:30:54;;;;;;;8.68;3.83;;;22.90;45.80;;;;;;6176423;27;80735;-66
2021/12/17 17:33:54;;;;;;;7.25;3.90;;;22.80;45.50;;;;;;6170430;27;80268;-67
2021/12/17 17:36:55;;;;;;;6.75;3.75;;;22.90;45.70;;;;;;6172676;27;80210;-65
2021/12/17 17:39:56;;;;;;;7.03;4.05;;;22.90;46.20;;;;;;6174431;27;80984;-68
2021/12/17 17:42:57;;;;;;;6.40;3.88;;;22.90;45.40;;;;;;6179864;27;81900;-67
2021/12/17 17:45:57;;;;;;;8.02;4.00;;;22.90;45.30;;;;;;6161724;28;80976;-67
2021/12/17 17:48:58;;;;;;;8.07;4.00;;;22.90;45.00;;;;;;6167994;28;81121;-65
2021/12/17 17:51:59;;;;;;;13.63;4.50;;;22.90;44.50;;;;;;6161443;28;80667;-66
2021/12/17 17:54:59;;;;;;;9.93;4.20;;;22.90;43.80;;;;;;6165250;28;80601;-68
2021/12/17 17:58:00;;;;;;;9.02;4.15;;;22.90;43.20;;;;;;6176777;28;80396;-71
2021/12/17 18:01:00;;;;;;;9.32;4.47;;;22.90;43.20;;;;;;6161992;28;82036;-67
2021/12/17 18:04:01;;;;;;;8.68;4.15;;;23.00;42.90;;;;;;6159950;28;80574;-70
2021/12/17 18:07:05;;;;;;;14.35;4.38;;;23.00;42.60;;;;;;6158856;28;80550;-70
2021/12/17 18:10:06;;;;;;;11.07;4.65;;;23.00;42.50;;;;;;6159385;28;81555;-70
2021/12/17 18:13:06;;;;;;;9.38;4.63;;;23.00;42.60;;;;;;6158609;28;83065;-68
2021/12/17 18:16:07;;;;;;;7.80;4.15;;;23.00;42.30;;;;;;6156234;28;81723;-66
2021/12/17 18:19:07;;;;;;;9.80;4.35;;;23.10;42.20;;;;;;6158762;28;86568;-69
2021/12/17 18:22:08;;;;;;;9.20;4.22;;;23.00;42.40;;;;;;6159490;28;81432;-71
2021/12/17 18:25:08;;;;;;;9.90;4.32;;;23.10;42.40;;;;;;6159332;28;80770;-72
2021/12/17 18:28:09;;;;;;;8.73;4.03;;;23.10;42.20;;;;;;6160791;28;80336;-68
2021/12/17 18:31:10;;;;;;;7.80;3.67;;;23.00;41.90;;;;;;6161574;28;80403;-68
2021/12/17 18:34:10;;;;;;;14.18;4.10;;;23.10;41.80;;;;;;6159537;28;81232;-71
2021/12/17 18:37:11;;;;;;;8.50;4.30;;;23.00;41.80;;;;;;6160673;28;81310;-66
2021/12/17 18:40:13;;;;;;;12.35;4.05;;;23.10;42.00;;;;;;6156596;28;80472;-65
2021/12/17 18:46:33;;;;;;;5.40;3.30;;;23.20;41.60;;;;;;6156356;28;80604;-66
2021/12/17 18:49:33;;;;;;;9.75;4.07;;;23.20;41.30;;;;;;6156718;28;81038;-67
2021/12/17 18:52:34;;;;;;;9.32;4.20;;;23.20;41.00;;;;;;6159048;28;83196;-66
2021/12/17 18:55:34;;;;;;;7.43;3.83;;;23.30;40.80;;;;;;6158923;28;81005;-67
2021/12/17 18:58:35;;;;;;;10.35;3.97;;;23.30;40.70;;;;;;6159604;28;81079;-66
2021/12/17 19:01:36;;;;;;;8.43;3.95;;;23.40;40.90;;;;;;6165398;28;80674;-67
2021/12/17 19:04:36;;;;;;;12.38;4.75;;;23.40;40.50;;;;;;6178412;28;80224;-65